sensor_id;sensor_type;location;lat;lon;timestamp;P1;durP1;ratioP1;P2;durP2;ratioP2
30763;SDS011;17497;51.476;7.770;2022-12-18T00:01:04;0.70;;;0.70;;
30763;SDS011;17497;51.476;7.770;2022-12-18T00:03:42;0.60;;;0.60;;
30763;SDS011;17497;51.476;7.770;2022-12-18T00:08:36;0.70;;;0.70;;
30763;SDS011;17497;51.476;7.770;2022-12-18T00:11:04;0.80;;;0.80;;
30763;SDS011;17497;51.476;7.770;2022-12-18T00:13:32;0.60;;;0.60;;
30763;SDS011;17497;51.476;7.770;2022-12-18T00:16:03;0.70;;;0.70;;
30763;SDS011;17497;51.476;7.770;2022-12-18T00:18:32;0.60;;;0.60;;
30763;SDS011;17497;51.476;7.770;2022-12-18T00:21:02;0.80;;;0.80;;
30763;SDS011;17497;51.476;7.770;2022-12-18T00:23:31;0.77;;;0.77;;
30763;SDS011;17497;51.476;7.770;2022-12-18T00:26:00;0.80;;;0.80;;
30763;SDS011;17497;51.476;7.770;2022-12-18T00:28:28;0.63;;;0.63;;
30763;SDS011;17497;51.476;7.770;2022-12-18T00:33:29;0.57;;;0.57;;
30763;SDS011;17497;51.476;7.770;2022-12-18T00:36:00;0.60;;;0.60;;
30763;SDS011;17497;51.476;7.770;2022-12-18T00:38:28;0.70;;;0.70;;
30763;SDS011;17497;51.476;7.770;2022-12-18T00:40:54;0.63;;;0.63;;
30763;SDS011;17497;51.476;7.770;2022-12-18T00:43:21;0.73;;;0.73;;
30763;SDS011;17497;51.476;7.770;2022-12-18T00:45:48;0.70;;;0.70;;
30763;SDS011;17497;51.476;7.770;2022-12-18T00:48:15;0.60;;;0.60;;
30763;SDS011;17497;51.476;7.770;2022-12-18T00:50:42;0.60;;;0.60;;
30763;SDS011;17497;51.476;7.770;2022-12-18T00:53:08;0.60;;;0.60;;
30763;SDS011;17497;51.476;7.770;2022-12-18T00:55:37;0.70;;;0.70;;
30763;SDS011;17497;51.476;7.770;2022-12-18T00:58:05;0.60;;;0.60;;
30763;SDS011;17497;51.476;7.770;2022-12-18T01:00:32;0.70;;;0.70;;
30763;SDS011;17497;51.476;7.770;2022-12-18T01:02:59;0.60;;;0.60;;
30763;SDS011;17497;51.476;7.770;2022-12-18T01:05:26;0.60;;;0.60;;
30763;SDS011;17497;51.476;7.770;2022-12-18T01:07:53;0.70;;;0.70;;
30763;SDS011;17497;51.476;7.770;2022-12-18T01:12:47;0.60;;;0.60;;
30763;SDS011;17497;51.476;7.770;2022-12-18T01:15:14;0.70;;;0.70;;
30763;SDS011;17497;51.476;7.770;2022-12-18T01:20:09;0.70;;;0.70;;
30763;SDS011;17497;51.476;7.770;2022-12-18T01:22:37;0.60;;;0.60;;
30763;SDS011;17497;51.476;7.770;2022-12-18T01:25:04;0.80;;;0.80;;
30763;SDS011;17497;51.476;7.770;2022-12-18T01:27:32;0.70;;;0.70;;
30763;SDS011;17497;51.476;7.770;2022-12-18T01:29:59;0.73;;;0.73;;
30763;SDS011;17497;51.476;7.770;2022-12-18T01:32:28;0.50;;;0.50;;
30763;SDS011;17497;51.476;7.770;2022-12-18T01:34:56;0.60;;;0.60;;
30763;SDS011;17497;51.476;7.770;2022-12-18T01:37:23;0.50;;;0.50;;
30763;SDS011;17497;51.476;7.770;2022-12-18T01:39:51;0.65;;;0.65;;
30763;SDS011;17497;51.476;7.770;2022-12-18T01:42:20;0.57;;;0.57;;
30763;SDS011;17497;51.476;7.770;2022-12-18T01:47:58;0.65;;;0.65;;
30763;SDS011;17497;51.476;7.770;2022-12-18T01:50:37;0.52;;;0.52;;
30763;SDS011;17497;51.476;7.770;2022-12-18T01:53:10;0.70;;;0.70;;
30763;SDS011;17497;51.476;7.770;2022-12-18T01:55:44;0.80;;;0.80;;
30763;SDS011;17497;51.476;7.770;2022-12-18T01:58:17;0.70;;;0.70;;
30763;SDS011;17497;51.476;7.770;2022-12-18T02:00:45;0.60;;;0.60;;
30763;SDS011;17497;51.476;7.770;2022-12-18T02:03:12;0.50;;;0.50;;
30763;SDS011;17497;51.476;7.770;2022-12-18T02:10:48;0.60;;;0.60;;
30763;SDS011;17497;51.476;7.770;2022-12-18T02:13:43;0.65;;;0.65;;
30763;SDS011;17497;51.476;7.770;2022-12-18T02:18:51;0.70;;;0.70;;
30763;SDS011;17497;51.476;7.770;2022-12-18T02:24:28;0.70;;;0.70;;
30763;SDS011;17497;51.476;7.770;2022-12-18T02:27:02;0.60;;;0.60;;
30763;SDS011;17497;51.476;7.770;2022-12-18T02:29:51;0.73;;;0.73;;
30763;SDS011;17497;51.476;7.770;2022-12-18T02:32:27;0.60;;;0.60;;
30763;SDS011;17497;51.476;7.770;2022-12-18T02:34:58;0.80;;;0.80;;
30763;SDS011;17497;51.476;7.770;2022-12-18T02:37:27;0.60;;;0.60;;
30763;SDS011;17497;51.476;7.770;2022-12-18T02:39:56;0.68;;;0.68;;
30763;SDS011;17497;51.476;7.770;2022-12-18T02:42:25;0.50;;;0.50;;
30763;SDS011;17497;51.476;7.770;2022-12-18T02:44:53;0.60;;;0.60;;
30763;SDS011;17497;51.476;7.770;2022-12-18T02:47:21;0.50;;;0.50;;
30763;SDS011;17497;51.476;7.770;2022-12-18T02:49:57;0.60;;;0.60;;
30763;SDS011;17497;51.476;7.770;2022-12-18T03:00:36;0.70;;;0.70;;
30763;SDS011;17497;51.476;7.770;2022-12-18T03:05:57;0.65;;;0.65;;
30763;SDS011;17497;51.476;7.770;2022-12-18T03:08:39;0.70;;;0.70;;
30763;SDS011;17497;51.476;7.770;2022-12-18T03:11:10;0.60;;;0.60;;
30763;SDS011;17497;51.476;7.770;2022-12-18T03:13:40;0.70;;;0.70;;
30763;SDS011;17497;51.476;7.770;2022-12-18T03:16:19;0.60;;;0.60;;
30763;SDS011;17497;51.476;7.770;2022-12-18T03:18:53;0.60;;;0.60;;
30763;SDS011;17497;51.476;7.770;2022-12-18T03:21:26;0.50;;;0.50;;
30763;SDS011;17497;51.476;7.770;2022-12-18T03:23:58;0.60;;;0.60;;
30763;SDS011;17497;51.476;7.770;2022-12-18T03:26:25;0.70;;;0.70;;
30763;SDS011;17497;51.476;7.770;2022-12-18T03:28:56;0.70;;;0.70;;
30763;SDS011;17497;51.476;7.770;2022-12-18T03:31:28;0.70;;;0.70;;
30763;SDS011;17497;51.476;7.770;2022-12-18T03:34:04;0.60;;;0.60;;
30763;SDS011;17497;51.476;7.770;2022-12-18T03:36:35;0.90;;;0.90;;
30763;SDS011;17497;51.476;7.770;2022-12-18T03:39:02;0.73;;;0.73;;
30763;SDS011;17497;51.476;7.770;2022-12-18T03:41:33;0.70;;;0.70;;
30763;SDS011;17497;51.476;7.770;2022-12-18T03:44:11;0.50;;;0.50;;
30763;SDS011;17497;51.476;7.770;2022-12-18T03:47:05;0.80;;;0.80;;
30763;SDS011;17497;51.476;7.770;2022-12-18T03:52:30;0.70;;;0.70;;
30763;SDS011;17497;51.476;7.770;2022-12-18T03:55:06;0.70;;;0.70;;
30763;SDS011;17497;51.476;7.770;2022-12-18T03:57:34;0.70;;;0.70;;
30763;SDS011;17497;51.476;7.770;2022-12-18T04:00:06;0.70;;;0.70;;
30763;SDS011;17497;51.476;7.770;2022-12-18T04:02:38;0.73;;;0.73;;
30763;SDS011;17497;51.476;7.770;2022-12-18T04:05:10;0.60;;;0.60;;
30763;SDS011;17497;51.476;7.770;2022-12-18T04:07:38;0.60;;;0.60;;
30763;SDS011;17497;51.476;7.770;2022-12-18T04:10:06;0.73;;;0.73;;
30763;SDS011;17497;51.476;7.770;2022-12-18T04:12:36;0.50;;;0.50;;
30763;SDS011;17497;51.476;7.770;2022-12-18T04:15:03;0.70;;;0.70;;
30763;SDS011;17497;51.476;7.770;2022-12-18T04:17:31;0.70;;;0.70;;
30763;SDS011;17497;51.476;7.770;2022-12-18T04:19:58;0.60;;;0.60;;
30763;SDS011;17497;51.476;7.770;2022-12-18T04:22:25;0.70;;;0.70;;
30763;SDS011;17497;51.476;7.770;2022-12-18T04:24:52;0.60;;;0.60;;
30763;SDS011;17497;51.476;7.770;2022-12-18T04:27:19;0.70;;;0.70;;
30763;SDS011;17497;51.476;7.770;2022-12-18T04:29:46;0.60;;;0.60;;
30763;SDS011;17497;51.476;7.770;2022-12-18T04:32:12;0.60;;;0.60;;
30763;SDS011;17497;51.476;7.770;2022-12-18T04:34:39;0.60;;;0.60;;
30763;SDS011;17497;51.476;7.770;2022-12-18T04:37:06;0.60;;;0.60;;
30763;SDS011;17497;51.476;7.770;2022-12-18T04:39:32;0.50;;;0.50;;
30763;SDS011;17497;51.476;7.770;2022-12-18T04:41:59;0.70;;;0.70;;
30763;SDS011;17497;51.476;7.770;2022-12-18T04:44:26;0.60;;;0.60;;
30763;SDS011;17497;51.476;7.770;2022-12-18T04:46:53;0.77;;;0.77;;
30763;SDS011;17497;51.476;7.770;2022-12-18T04:49:20;0.60;;;0.60;;
30763;SDS011;17497;51.476;7.770;2022-12-18T04:51:46;0.70;;;0.70;;
30763;SDS011;17497;51.476;7.770;2022-12-18T04:54:13;0.50;;;0.50;;
30763;SDS011;17497;51.476;7.770;2022-12-18T04:56:40;0.70;;;0.70;;
30763;SDS011;17497;51.476;7.770;2022-12-18T04:59:06;0.77;;;0.77;;
30763;SDS011;17497;51.476;7.770;2022-12-18T05:01:33;0.65;;;0.65;;
30763;SDS011;17497;51.476;7.770;2022-12-18T05:04:01;0.60;;;0.60;;
30763;SDS011;17497;51.476;7.770;2022-12-18T05:06:28;0.60;;;0.60;;
30763;SDS011;17497;51.476;7.770;2022-12-18T05:08:55;0.73;;;0.73;;
30763;SDS011;17497;51.476;7.770;2022-12-18T05:11:22;0.60;;;0.60;;
30763;SDS011;17497;51.476;7.770;2022-12-18T05:13:48;0.70;;;0.70;;
30763;SDS011;17497;51.476;7.770;2022-12-18T05:16:15;0.52;;;0.52;;
30763;SDS011;17497;51.476;7.770;2022-12-18T05:18:42;0.60;;;0.60;;
30763;SDS011;17497;51.476;7.770;2022-12-18T05:21:09;0.60;;;0.60;;
30763;SDS011;17497;51.476;7.770;2022-12-18T05:23:35;0.70;;;0.70;;
30763;SDS011;17497;51.476;7.770;2022-12-18T05:28:31;0.60;;;0.60;;
30763;SDS011;17497;51.476;7.770;2022-12-18T05:30:59;0.70;;;0.70;;
30763;SDS011;17497;51.476;7.770;2022-12-18T05:33:29;0.50;;;0.50;;
30763;SDS011;17497;51.476;7.770;2022-12-18T05:35:58;0.60;;;0.60;;
30763;SDS011;17497;51.476;7.770;2022-12-18T05:38:26;0.50;;;0.50;;
30763;SDS011;17497;51.476;7.770;2022-12-18T05:43:21;0.57;;;0.57;;
30763;SDS011;17497;51.476;7.770;2022-12-18T05:45:49;0.60;;;0.60;;
30763;SDS011;17497;51.476;7.770;2022-12-18T05:50:45;0.50;;;0.50;;
30763;SDS011;17497;51.476;7.770;2022-12-18T05:53:13;0.50;;;0.50;;
30763;SDS011;17497;51.476;7.770;2022-12-18T05:55:41;0.63;;;0.63;;
30763;SDS011;17497;51.476;7.770;2022-12-18T05:58:10;0.60;;;0.60;;
30763;SDS011;17497;51.476;7.770;2022-12-18T06:00:40;0.50;;;0.50;;
30763;SDS011;17497;51.476;7.770;2022-12-18T06:03:09;0.55;;;0.55;;
30763;SDS011;17497;51.476;7.770;2022-12-18T06:05:39;0.55;;;0.55;;
30763;SDS011;17497;51.476;7.770;2022-12-18T06:08:07;0.55;;;0.55;;
30763;SDS011;17497;51.476;7.770;2022-12-18T06:10:34;0.52;;;0.52;;
30763;SDS011;17497;51.476;7.770;2022-12-18T06:13:01;0.50;;;0.50;;
30763;SDS011;17497;51.476;7.770;2022-12-18T06:15:28;0.60;;;0.60;;
30763;SDS011;17497;51.476;7.770;2022-12-18T06:17:55;0.60;;;0.60;;
30763;SDS011;17497;51.476;7.770;2022-12-18T06:20:22;0.57;;;0.57;;
30763;SDS011;17497;51.476;7.770;2022-12-18T06:22:51;0.40;;;0.40;;
30763;SDS011;17497;51.476;7.770;2022-12-18T06:25:18;0.70;;;0.70;;
30763;SDS011;17497;51.476;7.770;2022-12-18T06:27:46;0.50;;;0.50;;
30763;SDS011;17497;51.476;7.770;2022-12-18T06:30:14;0.52;;;0.52;;
30763;SDS011;17497;51.476;7.770;2022-12-18T06:32:41;0.60;;;0.60;;
30763;SDS011;17497;51.476;7.770;2022-12-18T06:35:07;0.50;;;0.50;;
30763;SDS011;17497;51.476;7.770;2022-12-18T06:37:34;0.70;;;0.70;;
30763;SDS011;17497;51.476;7.770;2022-12-18T06:40:01;0.52;;;0.52;;
30763;SDS011;17497;51.476;7.770;2022-12-18T06:42:28;0.50;;;0.50;;
30763;SDS011;17497;51.476;7.770;2022-12-18T06:44:55;0.50;;;0.50;;
30763;SDS011;17497;51.476;7.770;2022-12-18T06:47:22;0.50;;;0.50;;
30763;SDS011;17497;51.476;7.770;2022-12-18T06:49:49;0.60;;;0.60;;
30763;SDS011;17497;51.476;7.770;2022-12-18T06:52:15;0.50;;;0.50;;
30763;SDS011;17497;51.476;7.770;2022-12-18T06:54:42;0.47;;;0.47;;
30763;SDS011;17497;51.476;7.770;2022-12-18T06:57:09;0.60;;;0.60;;
30763;SDS011;17497;51.476;7.770;2022-12-18T06:59:36;0.60;;;0.60;;
30763;SDS011;17497;51.476;7.770;2022-12-18T07:02:02;0.52;;;0.52;;
30763;SDS011;17497;51.476;7.770;2022-12-18T07:04:29;0.50;;;0.50;;
30763;SDS011;17497;51.476;7.770;2022-12-18T07:06:56;0.60;;;0.60;;
30763;SDS011;17497;51.476;7.770;2022-12-18T07:09:23;0.68;;;0.68;;
30763;SDS011;17497;51.476;7.770;2022-12-18T07:11:51;0.50;;;0.50;;
30763;SDS011;17497;51.476;7.770;2022-12-18T07:14:18;0.50;;;0.50;;
30763;SDS011;17497;51.476;7.770;2022-12-18T07:16:45;0.70;;;0.70;;
30763;SDS011;17497;51.476;7.770;2022-12-18T07:19:12;0.60;;;0.60;;
30763;SDS011;17497;51.476;7.770;2022-12-18T07:21:38;0.60;;;0.60;;
30763;SDS011;17497;51.476;7.770;2022-12-18T07:24:05;0.52;;;0.52;;
30763;SDS011;17497;51.476;7.770;2022-12-18T07:26:32;0.40;;;0.40;;
30763;SDS011;17497;51.476;7.770;2022-12-18T07:28:59;0.50;;;0.50;;
30763;SDS011;17497;51.476;7.770;2022-12-18T07:31:26;0.60;;;0.60;;
30763;SDS011;17497;51.476;7.770;2022-12-18T07:33:53;0.50;;;0.50;;
30763;SDS011;17497;51.476;7.770;2022-12-18T07:36:20;0.65;;;0.65;;
30763;SDS011;17497;51.476;7.770;2022-12-18T07:38:47;0.60;;;0.60;;
30763;SDS011;17497;51.476;7.770;2022-12-18T07:43:41;0.60;;;0.60;;
30763;SDS011;17497;51.476;7.770;2022-12-18T07:46:09;0.57;;;0.57;;
30763;SDS011;17497;51.476;7.770;2022-12-18T07:48:39;0.52;;;0.52;;
30763;SDS011;17497;51.476;7.770;2022-12-18T07:51:06;0.60;;;0.60;;
30763;SDS011;17497;51.476;7.770;2022-12-18T07:53:34;0.40;;;0.40;;
30763;SDS011;17497;51.476;7.770;2022-12-18T07:56:03;0.50;;;0.50;;
30763;SDS011;17497;51.476;7.770;2022-12-18T07:58:51;0.68;;;0.68;;
30763;SDS011;17497;51.476;7.770;2022-12-18T08:01:18;0.50;;;0.50;;
30763;SDS011;17497;51.476;7.770;2022-12-18T08:03:46;0.60;;;0.60;;
30763;SDS011;17497;51.476;7.770;2022-12-18T08:06:13;0.52;;;0.52;;
30763;SDS011;17497;51.476;7.770;2022-12-18T08:08:40;0.52;;;0.52;;
30763;SDS011;17497;51.476;7.770;2022-12-18T08:11:08;0.60;;;0.60;;
30763;SDS011;17497;51.476;7.770;2022-12-18T08:13:35;0.40;;;0.40;;
30763;SDS011;17497;51.476;7.770;2022-12-18T08:16:03;0.50;;;0.50;;
30763;SDS011;17497;51.476;7.770;2022-12-18T08:18:33;0.50;;;0.50;;
30763;SDS011;17497;51.476;7.770;2022-12-18T08:21:14;0.50;;;0.50;;
30763;SDS011;17497;51.476;7.770;2022-12-18T08:23:48;0.50;;;0.50;;
30763;SDS011;17497;51.476;7.770;2022-12-18T08:26:17;0.50;;;0.50;;
30763;SDS011;17497;51.476;7.770;2022-12-18T08:29:29;0.52;;;0.52;;
30763;SDS011;17497;51.476;7.770;2022-12-18T08:31:46;0.50;;;0.50;;
30763;SDS011;17497;51.476;7.770;2022-12-18T08:34:13;0.52;;;0.52;;
30763;SDS011;17497;51.476;7.770;2022-12-18T08:36:40;0.52;;;0.52;;
30763;SDS011;17497;51.476;7.770;2022-12-18T08:39:07;0.50;;;0.50;;
30763;SDS011;17497;51.476;7.770;2022-12-18T08:41:34;0.50;;;0.50;;
30763;SDS011;17497;51.476;7.770;2022-12-18T08:44:00;0.50;;;0.50;;
30763;SDS011;17497;51.476;7.770;2022-12-18T08:46:46;0.50;;;0.50;;
30763;SDS011;17497;51.476;7.770;2022-12-18T08:49:12;0.40;;;0.40;;
30763;SDS011;17497;51.476;7.770;2022-12-18T08:51:39;0.50;;;0.50;;
30763;SDS011;17497;51.476;7.770;2022-12-18T08:54:06;0.60;;;0.60;;
30763;SDS011;17497;51.476;7.770;2022-12-18T08:56:33;0.50;;;0.50;;
30763;SDS011;17497;51.476;7.770;2022-12-18T08:59:00;0.50;;;0.50;;
30763;SDS011;17497;51.476;7.770;2022-12-18T09:01:27;0.50;;;0.50;;
30763;SDS011;17497;51.476;7.770;2022-12-18T09:03:54;0.50;;;0.50;;
30763;SDS011;17497;51.476;7.770;2022-12-18T09:06:22;0.40;;;0.40;;
30763;SDS011;17497;51.476;7.770;2022-12-18T09:11:20;0.40;;;0.40;;
30763;SDS011;17497;51.476;7.770;2022-12-18T09:13:49;0.52;;;0.52;;
30763;SDS011;17497;51.476;7.770;2022-12-18T09:18:44;0.50;;;0.50;;
30763;SDS011;17497;51.476;7.770;2022-12-18T09:21:15;0.50;;;0.50;;
30763;SDS011;17497;51.476;7.770;2022-12-18T09:23:44;0.40;;;0.40;;
30763;SDS011;17497;51.476;7.770;2022-12-18T09:26:15;0.50;;;0.50;;
30763;SDS011;17497;51.476;7.770;2022-12-18T09:28:42;0.50;;;0.50;;
30763;SDS011;17497;51.476;7.770;2022-12-18T09:31:10;0.38;;;0.38;;
30763;SDS011;17497;51.476;7.770;2022-12-18T09:33:42;0.43;;;0.43;;
30763;SDS011;17497;51.476;7.770;2022-12-18T09:36:09;0.40;;;0.40;;
30763;SDS011;17497;51.476;7.770;2022-12-18T09:38:37;0.50;;;0.50;;
30763;SDS011;17497;51.476;7.770;2022-12-18T09:41:06;0.40;;;0.40;;
30763;SDS011;17497;51.476;7.770;2022-12-18T09:43:48;0.40;;;0.40;;
30763;SDS011;17497;51.476;7.770;2022-12-18T09:46:19;0.43;;;0.43;;
30763;SDS011;17497;51.476;7.770;2022-12-18T09:48:54;0.50;;;0.50;;
30763;SDS011;17497;51.476;7.770;2022-12-18T09:54:16;0.30;;;0.30;;
30763;SDS011;17497;51.476;7.770;2022-12-18T09:56:51;0.60;;;0.60;;
30763;SDS011;17497;51.476;7.770;2022-12-18T10:01:50;0.40;;;0.40;;
30763;SDS011;17497;51.476;7.770;2022-12-18T10:04:17;0.40;;;0.40;;
30763;SDS011;17497;51.476;7.770;2022-12-18T10:14:41;0.40;;;0.40;;
30763;SDS011;17497;51.476;7.770;2022-12-18T10:22:57;0.40;;;0.40;;
30763;SDS011;17497;51.476;7.770;2022-12-18T10:28:51;0.40;;;0.40;;
30763;SDS011;17497;51.476;7.770;2022-12-18T10:31:20;0.50;;;0.50;;
30763;SDS011;17497;51.476;7.770;2022-12-18T10:33:50;0.45;;;0.45;;
30763;SDS011;17497;51.476;7.770;2022-12-18T10:36:22;0.40;;;0.40;;
30763;SDS011;17497;51.476;7.770;2022-12-18T10:38:50;0.40;;;0.40;;
30763;SDS011;17497;51.476;7.770;2022-12-18T10:43:46;0.40;;;0.40;;
30763;SDS011;17497;51.476;7.770;2022-12-18T10:46:14;0.40;;;0.40;;
30763;SDS011;17497;51.476;7.770;2022-12-18T10:48:55;0.40;;;0.40;;
30763;SDS011;17497;51.476;7.770;2022-12-18T10:54:02;0.40;;;0.40;;
30763;SDS011;17497;51.476;7.770;2022-12-18T10:56:33;0.40;;;0.40;;
30763;SDS011;17497;51.476;7.770;2022-12-18T10:59:02;0.30;;;0.30;;
30763;SDS011;17497;51.476;7.770;2022-12-18T11:01:47;0.30;;;0.30;;
30763;SDS011;17497;51.476;7.770;2022-12-18T11:04:19;0.30;;;0.30;;
30763;SDS011;17497;51.476;7.770;2022-12-18T11:09:35;0.40;;;0.40;;
30763;SDS011;17497;51.476;7.770;2022-12-18T11:12:04;0.40;;;0.40;;
30763;SDS011;17497;51.476;7.770;2022-12-18T11:14:57;0.40;;;0.40;;
30763;SDS011;17497;51.476;7.770;2022-12-18T11:17:33;0.40;;;0.40;;
30763;SDS011;17497;51.476;7.770;2022-12-18T11:20:05;0.40;;;0.40;;
30763;SDS011;17497;51.476;7.770;2022-12-18T11:22:53;0.40;;;0.40;;
30763;SDS011;17497;51.476;7.770;2022-12-18T11:25:26;0.30;;;0.30;;
30763;SDS011;17497;51.476;7.770;2022-12-18T11:28:00;0.40;;;0.40;;
30763;SDS011;17497;51.476;7.770;2022-12-18T11:30:33;0.40;;;0.40;;
30763;SDS011;17497;51.476;7.770;2022-12-18T11:35:58;0.30;;;0.30;;
30763;SDS011;17497;51.476;7.770;2022-12-18T11:38:31;0.40;;;0.40;;
30763;SDS011;17497;51.476;7.770;2022-12-18T11:43:40;0.30;;;0.30;;
30763;SDS011;17497;51.476;7.770;2022-12-18T11:46:15;0.30;;;0.30;;
30763;SDS011;17497;51.476;7.770;2022-12-18T11:48:49;0.40;;;0.40;;
30763;SDS011;17497;51.476;7.770;2022-12-18T11:51:35;0.30;;;0.30;;
30763;SDS011;17497;51.476;7.770;2022-12-18T11:54:13;0.35;;;0.35;;
30763;SDS011;17497;51.476;7.770;2022-12-18T12:07:55;0.40;;;0.40;;
30763;SDS011;17497;51.476;7.770;2022-12-18T12:18:37;0.30;;;0.30;;
30763;SDS011;17497;51.476;7.770;2022-12-18T12:32:39;0.30;;;0.30;;
30763;SDS011;17497;51.476;7.770;2022-12-18T12:35:28;0.40;;;0.40;;
30763;SDS011;17497;51.476;7.770;2022-12-18T12:41:00;0.35;;;0.35;;
30763;SDS011;17497;51.476;7.770;2022-12-18T12:43:44;0.40;;;0.40;;
30763;SDS011;17497;51.476;7.770;2022-12-18T12:46:17;0.30;;;0.30;;
30763;SDS011;17497;51.476;7.770;2022-12-18T12:51:24;0.40;;;0.40;;
30763;SDS011;17497;51.476;7.770;2022-12-18T12:53:54;0.30;;;0.30;;
30763;SDS011;17497;51.476;7.770;2022-12-18T12:56:24;0.40;;;0.40;;
30763;SDS011;17497;51.476;7.770;2022-12-18T12:59:19;0.30;;;0.30;;
30763;SDS011;17497;51.476;7.770;2022-12-18T13:01:54;0.30;;;0.30;;
30763;SDS011;17497;51.476;7.770;2022-12-18T13:12:53;0.30;;;0.30;;
30763;SDS011;17497;51.476;7.770;2022-12-18T13:15:37;0.40;;;0.40;;
30763;SDS011;17497;51.476;7.770;2022-12-18T13:34:17;0.30;;;0.30;;
30763;SDS011;17497;51.476;7.770;2022-12-18T13:36:53;0.47;;;0.47;;
30763;SDS011;17497;51.476;7.770;2022-12-18T13:39:23;0.35;;;0.35;;
30763;SDS011;17497;51.476;7.770;2022-12-18T13:45:02;0.30;;;0.30;;
30763;SDS011;17497;51.476;7.770;2022-12-18T13:48:12;0.30;;;0.30;;
30763;SDS011;17497;51.476;7.770;2022-12-18T13:50:49;0.30;;;0.30;;
30763;SDS011;17497;51.476;7.770;2022-12-18T13:53:26;0.40;;;0.40;;
30763;SDS011;17497;51.476;7.770;2022-12-18T13:55:56;0.40;;;0.40;;
30763;SDS011;17497;51.476;7.770;2022-12-18T13:58:23;0.35;;;0.35;;
30763;SDS011;17497;51.476;7.770;2022-12-18T14:00:50;0.30;;;0.30;;
30763;SDS011;17497;51.476;7.770;2022-12-18T14:03:18;0.40;;;0.40;;
30763;SDS011;17497;51.476;7.770;2022-12-18T14:05:54;0.40;;;0.40;;
30763;SDS011;17497;51.476;7.770;2022-12-18T14:08:24;0.30;;;0.30;;
30763;SDS011;17497;51.476;7.770;2022-12-18T14:10:58;0.45;;;0.45;;
30763;SDS011;17497;51.476;7.770;2022-12-18T14:13:30;0.40;;;0.40;;
30763;SDS011;17497;51.476;7.770;2022-12-18T14:16:00;0.30;;;0.30;;
30763;SDS011;17497;51.476;7.770;2022-12-18T14:20:59;0.35;;;0.35;;
30763;SDS011;17497;51.476;7.770;2022-12-18T14:26:20;0.38;;;0.38;;
30763;SDS011;17497;51.476;7.770;2022-12-18T14:28:50;0.30;;;0.30;;
30763;SDS011;17497;51.476;7.770;2022-12-18T14:33:46;0.35;;;0.35;;
30763;SDS011;17497;51.476;7.770;2022-12-18T14:36:15;0.30;;;0.30;;
30763;SDS011;17497;51.476;7.770;2022-12-18T14:38:51;0.30;;;0.30;;
30763;SDS011;17497;51.476;7.770;2022-12-18T14:41:23;0.30;;;0.30;;
30763;SDS011;17497;51.476;7.770;2022-12-18T14:43:55;0.30;;;0.30;;
30763;SDS011;17497;51.476;7.770;2022-12-18T14:46:37;0.40;;;0.40;;
30763;SDS011;17497;51.476;7.770;2022-12-18T14:51:54;0.40;;;0.40;;
30763;SDS011;17497;51.476;7.770;2022-12-18T14:54:26;0.30;;;0.30;;
30763;SDS011;17497;51.476;7.770;2022-12-18T14:57:02;0.40;;;0.40;;
30763;SDS011;17497;51.476;7.770;2022-12-18T14:59:29;0.40;;;0.40;;
30763;SDS011;17497;51.476;7.770;2022-12-18T15:04:38;0.30;;;0.30;;
30763;SDS011;17497;51.476;7.770;2022-12-18T15:07:19;0.30;;;0.30;;
30763;SDS011;17497;51.476;7.770;2022-12-18T15:12:33;0.32;;;0.32;;
30763;SDS011;17497;51.476;7.770;2022-12-18T15:17:59;0.45;;;0.45;;
30763;SDS011;17497;51.476;7.770;2022-12-18T15:20:27;0.43;;;0.43;;
30763;SDS011;17497;51.476;7.770;2022-12-18T15:22:57;0.40;;;0.40;;
30763;SDS011;17497;51.476;7.770;2022-12-18T15:25:34;0.40;;;0.40;;
30763;SDS011;17497;51.476;7.770;2022-12-18T15:28:04;0.40;;;0.40;;
30763;SDS011;17497;51.476;7.770;2022-12-18T15:36:20;0.32;;;0.32;;
30763;SDS011;17497;51.476;7.770;2022-12-18T15:38:52;0.40;;;0.40;;
30763;SDS011;17497;51.476;7.770;2022-12-18T15:43:59;0.50;;;0.50;;
30763;SDS011;17497;51.476;7.770;2022-12-18T15:46:26;0.38;;;0.38;;
30763;SDS011;17497;51.476;7.770;2022-12-18T15:48:54;0.32;;;0.32;;
30763;SDS011;17497;51.476;7.770;2022-12-18T15:51:28;0.40;;;0.40;;
30763;SDS011;17497;51.476;7.770;2022-12-18T15:54:01;0.40;;;0.40;;
30763;SDS011;17497;51.476;7.770;2022-12-18T15:56:30;0.40;;;0.40;;
30763;SDS011;17497;51.476;7.770;2022-12-18T15:59:18;0.40;;;0.40;;
30763;SDS011;17497;51.476;7.770;2022-12-18T16:01:47;0.40;;;0.40;;
30763;SDS011;17497;51.476;7.770;2022-12-18T16:04:17;0.40;;;0.40;;
30763;SDS011;17497;51.476;7.770;2022-12-18T16:06:46;0.40;;;0.40;;
30763;SDS011;17497;51.476;7.770;2022-12-18T16:09:34;0.40;;;0.40;;
30763;SDS011;17497;51.476;7.770;2022-12-18T16:12:01;0.40;;;0.40;;
30763;SDS011;17497;51.476;7.770;2022-12-18T16:14:29;0.50;;;0.50;;
30763;SDS011;17497;51.476;7.770;2022-12-18T16:17:00;0.30;;;0.30;;
30763;SDS011;17497;51.476;7.770;2022-12-18T16:19:31;0.40;;;0.40;;
30763;SDS011;17497;51.476;7.770;2022-12-18T16:21:59;0.40;;;0.40;;
30763;SDS011;17497;51.476;7.770;2022-12-18T16:26:56;0.40;;;0.40;;
30763;SDS011;17497;51.476;7.770;2022-12-18T16:29:25;0.30;;;0.30;;
30763;SDS011;17497;51.476;7.770;2022-12-18T16:31:58;0.40;;;0.40;;
30763;SDS011;17497;51.476;7.770;2022-12-18T16:34:30;0.43;;;0.43;;
30763;SDS011;17497;51.476;7.770;2022-12-18T16:37:02;0.40;;;0.40;;
30763;SDS011;17497;51.476;7.770;2022-12-18T16:39:32;0.30;;;0.30;;
30763;SDS011;17497;51.476;7.770;2022-12-18T16:42:03;0.38;;;0.38;;
30763;SDS011;17497;51.476;7.770;2022-12-18T16:44:38;0.30;;;0.30;;
30763;SDS011;17497;51.476;7.770;2022-12-18T16:47:09;0.30;;;0.30;;
30763;SDS011;17497;51.476;7.770;2022-12-18T16:49:40;0.40;;;0.40;;
30763;SDS011;17497;51.476;7.770;2022-12-18T16:52:07;0.40;;;0.40;;
30763;SDS011;17497;51.476;7.770;2022-12-18T16:54:34;0.40;;;0.40;;
30763;SDS011;17497;51.476;7.770;2022-12-18T16:57:02;0.40;;;0.40;;
30763;SDS011;17497;51.476;7.770;2022-12-18T16:59:30;0.30;;;0.30;;
30763;SDS011;17497;51.476;7.770;2022-12-18T17:02:00;0.50;;;0.50;;
30763;SDS011;17497;51.476;7.770;2022-12-18T17:04:27;0.40;;;0.40;;
30763;SDS011;17497;51.476;7.770;2022-12-18T17:06:53;0.40;;;0.40;;
30763;SDS011;17497;51.476;7.770;2022-12-18T17:09:20;0.38;;;0.38;;
30763;SDS011;17497;51.476;7.770;2022-12-18T17:11:51;0.30;;;0.30;;
30763;SDS011;17497;51.476;7.770;2022-12-18T17:16:46;0.40;;;0.40;;
30763;SDS011;17497;51.476;7.770;2022-12-18T17:19:33;0.30;;;0.30;;
30763;SDS011;17497;51.476;7.770;2022-12-18T17:22:00;0.30;;;0.30;;
30763;SDS011;17497;51.476;7.770;2022-12-18T17:24:26;0.40;;;0.40;;
30763;SDS011;17497;51.476;7.770;2022-12-18T17:27:00;0.40;;;0.40;;
30763;SDS011;17497;51.476;7.770;2022-12-18T17:29:27;0.30;;;0.30;;
30763;SDS011;17497;51.476;7.770;2022-12-18T17:31:54;0.45;;;0.45;;
30763;SDS011;17497;51.476;7.770;2022-12-18T17:34:22;0.40;;;0.40;;
30763;SDS011;17497;51.476;7.770;2022-12-18T17:36:49;0.30;;;0.30;;
30763;SDS011;17497;51.476;7.770;2022-12-18T17:39:17;0.30;;;0.30;;
30763;SDS011;17497;51.476;7.770;2022-12-18T17:41:45;0.45;;;0.45;;
30763;SDS011;17497;51.476;7.770;2022-12-18T17:44:12;0.52;;;0.52;;
30763;SDS011;17497;51.476;7.770;2022-12-18T17:46:40;0.47;;;0.47;;
30763;SDS011;17497;51.476;7.770;2022-12-18T17:49:11;0.40;;;0.40;;
30763;SDS011;17497;51.476;7.770;2022-12-18T17:51:39;0.50;;;0.50;;
30763;SDS011;17497;51.476;7.770;2022-12-18T17:54:08;0.40;;;0.40;;
30763;SDS011;17497;51.476;7.770;2022-12-18T17:56:35;0.50;;;0.50;;
30763;SDS011;17497;51.476;7.770;2022-12-18T17:59:02;0.30;;;0.30;;
30763;SDS011;17497;51.476;7.770;2022-12-18T18:01:29;0.40;;;0.40;;
30763;SDS011;17497;51.476;7.770;2022-12-18T18:03:56;0.40;;;0.40;;
30763;SDS011;17497;51.476;7.770;2022-12-18T18:06:25;0.40;;;0.40;;
30763;SDS011;17497;51.476;7.770;2022-12-18T18:08:52;0.40;;;0.40;;
30763;SDS011;17497;51.476;7.770;2022-12-18T18:11:20;0.50;;;0.50;;